Terminal Aerodrome Forecast
Issued by NWS

Home | Current Version | Previous Version | Text Only | Print | Product List | Glossary On
Versions: 1 2 3 4 5 6 7 8 9 10 11 12 13 14 15 16 17 18
000
FTUS46 KPQR 111314 AAA
TAFONP
TAF AMD
KONP 111314Z 1113/1212 22012G20KT P6SM -SHRA SCT025 BKN040
      TEMPO 1113/1116 23020G30KT 5SM SHRA BR SCT012 BKN022 BKN035
     FM111900 23015G23KT P6SM -SHRA SCT025 BKN040
     FM120500 24007KT P6SM -SHRA SCT020 BKN035=

USA.gov is the U.S. government's official web portal to all federal, state and local government web resources and services.